sensor_id;sensor_type;location;lat;lon;timestamp;P1;durP1;ratioP1;P2;durP2;ratioP2
48629;SDS011;34426;52.180;4.462;2023-04-16T00:01:29;23.73;;;2.72;;
48629;SDS011;34426;52.180;4.462;2023-04-16T00:03:56;24.63;;;2.92;;
48629;SDS011;34426;52.180;4.462;2023-04-16T00:06:23;21.67;;;2.83;;
48629;SDS011;34426;52.180;4.462;2023-04-16T00:08:51;9.23;;;2.17;;
48629;SDS011;34426;52.180;4.462;2023-04-16T00:11:20;13.75;;;1.98;;
48629;SDS011;34426;52.180;4.462;2023-04-16T00:13:48;14.85;;;2.55;;
48629;SDS011;34426;52.180;4.462;2023-04-16T00:16:15;19.70;;;2.42;;
48629;SDS011;34426;52.180;4.462;2023-04-16T00:18:43;16.65;;;3.30;;
48629;SDS011;34426;52.180;4.462;2023-04-16T00:21:10;19.35;;;4.63;;
48629;SDS011;34426;52.180;4.462;2023-04-16T00:23:38;14.75;;;3.22;;
48629;SDS011;34426;52.180;4.462;2023-04-16T00:26:05;19.63;;;2.67;;
48629;SDS011;34426;52.180;4.462;2023-04-16T00:28:35;21.58;;;3.60;;
48629;SDS011;34426;52.180;4.462;2023-04-16T00:31:02;15.13;;;2.60;;
48629;SDS011;34426;52.180;4.462;2023-04-16T00:33:29;22.00;;;2.50;;
48629;SDS011;34426;52.180;4.462;2023-04-16T00:35:57;17.88;;;2.83;;
48629;SDS011;34426;52.180;4.462;2023-04-16T00:38:24;16.00;;;2.40;;
48629;SDS011;34426;52.180;4.462;2023-04-16T00:40:51;19.10;;;2.50;;
48629;SDS011;34426;52.180;4.462;2023-04-16T00:43:22;16.17;;;2.78;;
48629;SDS011;34426;52.180;4.462;2023-04-16T00:45:52;30.15;;;4.40;;
48629;SDS011;34426;52.180;4.462;2023-04-16T00:48:21;17.30;;;2.45;;
48629;SDS011;34426;52.180;4.462;2023-04-16T00:50:49;16.88;;;2.72;;
48629;SDS011;34426;52.180;4.462;2023-04-16T00:53:17;17.80;;;2.97;;
48629;SDS011;34426;52.180;4.462;2023-04-16T00:55:45;13.90;;;3.13;;
48629;SDS011;34426;52.180;4.462;2023-04-16T00:58:12;22.17;;;2.65;;
48629;SDS011;34426;52.180;4.462;2023-04-16T01:00:40;20.45;;;3.67;;
48629;SDS011;34426;52.180;4.462;2023-04-16T01:03:09;17.60;;;2.90;;
48629;SDS011;34426;52.180;4.462;2023-04-16T01:05:36;14.90;;;2.70;;
48629;SDS011;34426;52.180;4.462;2023-04-16T01:08:04;22.23;;;3.20;;
48629;SDS011;34426;52.180;4.462;2023-04-16T01:10:31;18.88;;;3.70;;
48629;SDS011;34426;52.180;4.462;2023-04-16T01:12:59;16.83;;;3.30;;
48629;SDS011;34426;52.180;4.462;2023-04-16T01:15:26;27.05;;;3.03;;
48629;SDS011;34426;52.180;4.462;2023-04-16T01:17:54;21.83;;;3.90;;
48629;SDS011;34426;52.180;4.462;2023-04-16T01:20:23;21.83;;;3.10;;
48629;SDS011;34426;52.180;4.462;2023-04-16T01:22:52;22.42;;;4.28;;
48629;SDS011;34426;52.180;4.462;2023-04-16T01:25:19;21.83;;;3.22;;
48629;SDS011;34426;52.180;4.462;2023-04-16T01:27:48;15.43;;;3.60;;
48629;SDS011;34426;52.180;4.462;2023-04-16T01:30:15;14.32;;;3.63;;
48629;SDS011;34426;52.180;4.462;2023-04-16T01:32:43;23.65;;;3.40;;
48629;SDS011;34426;52.180;4.462;2023-04-16T01:35:10;16.85;;;3.40;;
48629;SDS011;34426;52.180;4.462;2023-04-16T01:37:38;28.83;;;4.28;;
48629;SDS011;34426;52.180;4.462;2023-04-16T01:40:07;24.17;;;3.72;;
48629;SDS011;34426;52.180;4.462;2023-04-16T01:42:35;21.88;;;3.97;;
48629;SDS011;34426;52.180;4.462;2023-04-16T01:45:03;21.77;;;4.00;;
48629;SDS011;34426;52.180;4.462;2023-04-16T01:47:31;19.27;;;4.40;;
48629;SDS011;34426;52.180;4.462;2023-04-16T01:49:59;19.85;;;3.72;;
48629;SDS011;34426;52.180;4.462;2023-04-16T01:52:26;25.33;;;3.85;;
48629;SDS011;34426;52.180;4.462;2023-04-16T01:54:54;22.95;;;3.65;;
48629;SDS011;34426;52.180;4.462;2023-04-16T01:57:23;19.40;;;3.70;;
48629;SDS011;34426;52.180;4.462;2023-04-16T01:59:50;18.80;;;4.10;;
48629;SDS011;34426;52.180;4.462;2023-04-16T02:02:18;27.73;;;4.93;;
48629;SDS011;34426;52.180;4.462;2023-04-16T02:04:46;24.38;;;3.90;;
48629;SDS011;34426;52.180;4.462;2023-04-16T02:07:13;19.55;;;3.75;;
48629;SDS011;34426;52.180;4.462;2023-04-16T02:09:40;19.40;;;3.65;;
48629;SDS011;34426;52.180;4.462;2023-04-16T02:12:08;14.70;;;3.25;;
48629;SDS011;34426;52.180;4.462;2023-04-16T02:14:37;16.23;;;3.25;;
48629;SDS011;34426;52.180;4.462;2023-04-16T02:17:04;27.27;;;3.75;;
48629;SDS011;34426;52.180;4.462;2023-04-16T02:19:31;36.45;;;3.85;;
48629;SDS011;34426;52.180;4.462;2023-04-16T02:21:58;19.58;;;3.95;;
48629;SDS011;34426;52.180;4.462;2023-04-16T02:24:26;17.52;;;3.35;;
48629;SDS011;34426;52.180;4.462;2023-04-16T02:26:54;31.08;;;4.30;;
48629;SDS011;34426;52.180;4.462;2023-04-16T02:29:21;25.25;;;4.13;;
48629;SDS011;34426;52.180;4.462;2023-04-16T02:31:50;18.15;;;3.63;;
48629;SDS011;34426;52.180;4.462;2023-04-16T02:34:18;16.23;;;4.03;;
48629;SDS011;34426;52.180;4.462;2023-04-16T02:36:45;29.85;;;4.93;;
48629;SDS011;34426;52.180;4.462;2023-04-16T02:39:13;15.10;;;4.50;;
48629;SDS011;34426;52.180;4.462;2023-04-16T02:41:40;29.08;;;4.05;;
48629;SDS011;34426;52.180;4.462;2023-04-16T02:44:07;19.77;;;3.65;;
48629;SDS011;34426;52.180;4.462;2023-04-16T02:46:34;31.63;;;4.70;;
48629;SDS011;34426;52.180;4.462;2023-04-16T02:49:03;25.08;;;3.95;;
48629;SDS011;34426;52.180;4.462;2023-04-16T02:51:31;33.55;;;4.70;;
48629;SDS011;34426;52.180;4.462;2023-04-16T02:53:58;26.48;;;3.92;;
48629;SDS011;34426;52.180;4.462;2023-04-16T02:56:25;30.05;;;4.53;;
48629;SDS011;34426;52.180;4.462;2023-04-16T02:58:53;33.92;;;5.18;;
48629;SDS011;34426;52.180;4.462;2023-04-16T03:01:20;25.25;;;5.63;;
48629;SDS011;34426;52.180;4.462;2023-04-16T03:03:48;24.88;;;4.68;;
48629;SDS011;34426;52.180;4.462;2023-04-16T03:06:17;36.95;;;6.90;;
48629;SDS011;34426;52.180;4.462;2023-04-16T03:08:44;29.40;;;4.60;;
48629;SDS011;34426;52.180;4.462;2023-04-16T03:11:12;22.02;;;5.10;;
48629;SDS011;34426;52.180;4.462;2023-04-16T03:13:39;24.38;;;3.90;;
48629;SDS011;34426;52.180;4.462;2023-04-16T03:16:07;47.90;;;5.95;;
48629;SDS011;34426;52.180;4.462;2023-04-16T03:18:34;35.10;;;4.25;;
48629;SDS011;34426;52.180;4.462;2023-04-16T03:21:02;30.60;;;4.28;;
48629;SDS011;34426;52.180;4.462;2023-04-16T03:23:31;21.35;;;3.75;;
48629;SDS011;34426;52.180;4.462;2023-04-16T03:25:59;26.15;;;5.22;;
48629;SDS011;34426;52.180;4.462;2023-04-16T03:28:26;21.40;;;3.20;;
48629;SDS011;34426;52.180;4.462;2023-04-16T03:30:53;27.98;;;4.10;;
48629;SDS011;34426;52.180;4.462;2023-04-16T03:33:21;24.10;;;4.00;;
48629;SDS011;34426;52.180;4.462;2023-04-16T03:35:54;16.17;;;3.13;;
48629;SDS011;34426;52.180;4.462;2023-04-16T03:40:49;24.48;;;3.50;;
48629;SDS011;34426;52.180;4.462;2023-04-16T03:43:17;24.52;;;3.60;;
48629;SDS011;34426;52.180;4.462;2023-04-16T03:45:44;28.10;;;3.97;;
48629;SDS011;34426;52.180;4.462;2023-04-16T03:48:15;21.73;;;3.35;;
48629;SDS011;34426;52.180;4.462;2023-04-16T03:50:44;21.52;;;3.53;;
48629;SDS011;34426;52.180;4.462;2023-04-16T03:53:12;26.20;;;3.80;;
48629;SDS011;34426;52.180;4.462;2023-04-16T03:55:39;23.83;;;3.72;;
48629;SDS011;34426;52.180;4.462;2023-04-16T03:58:08;22.80;;;3.10;;
48629;SDS011;34426;52.180;4.462;2023-04-16T04:00:36;22.48;;;3.63;;
48629;SDS011;34426;52.180;4.462;2023-04-16T04:03:06;17.38;;;3.20;;
48629;SDS011;34426;52.180;4.462;2023-04-16T04:05:35;23.27;;;3.42;;
48629;SDS011;34426;52.180;4.462;2023-04-16T04:08:02;17.75;;;3.45;;
48629;SDS011;34426;52.180;4.462;2023-04-16T04:10:31;20.33;;;3.33;;
48629;SDS011;34426;52.180;4.462;2023-04-16T04:12:58;25.00;;;3.58;;
48629;SDS011;34426;52.180;4.462;2023-04-16T04:15:27;18.08;;;3.85;;
48629;SDS011;34426;52.180;4.462;2023-04-16T04:17:54;19.63;;;3.58;;
48629;SDS011;34426;52.180;4.462;2023-04-16T04:20:21;30.77;;;3.60;;
48629;SDS011;34426;52.180;4.462;2023-04-16T04:22:49;17.92;;;2.80;;
48629;SDS011;34426;52.180;4.462;2023-04-16T04:25:16;19.67;;;2.90;;
48629;SDS011;34426;52.180;4.462;2023-04-16T04:27:44;26.48;;;3.72;;
48629;SDS011;34426;52.180;4.462;2023-04-16T04:30:11;26.92;;;3.58;;
48629;SDS011;34426;52.180;4.462;2023-04-16T04:32:40;15.73;;;2.90;;
48629;SDS011;34426;52.180;4.462;2023-04-16T04:35:08;21.67;;;3.08;;
48629;SDS011;34426;52.180;4.462;2023-04-16T04:37:36;21.58;;;2.92;;
48629;SDS011;34426;52.180;4.462;2023-04-16T04:40:04;17.17;;;2.75;;
48629;SDS011;34426;52.180;4.462;2023-04-16T04:42:32;20.00;;;3.42;;
48629;SDS011;34426;52.180;4.462;2023-04-16T04:44:59;20.00;;;3.55;;
48629;SDS011;34426;52.180;4.462;2023-04-16T04:47:27;25.70;;;3.47;;
48629;SDS011;34426;52.180;4.462;2023-04-16T04:49:56;23.33;;;3.60;;
48629;SDS011;34426;52.180;4.462;2023-04-16T04:52:23;22.55;;;3.90;;
48629;SDS011;34426;52.180;4.462;2023-04-16T04:54:50;22.38;;;4.15;;
48629;SDS011;34426;52.180;4.462;2023-04-16T04:57:17;20.13;;;3.70;;
48629;SDS011;34426;52.180;4.462;2023-04-16T04:59:45;17.95;;;3.45;;
48629;SDS011;34426;52.180;4.462;2023-04-16T05:02:12;31.08;;;4.60;;
48629;SDS011;34426;52.180;4.462;2023-04-16T05:04:40;17.75;;;3.80;;
48629;SDS011;34426;52.180;4.462;2023-04-16T05:07:09;19.45;;;4.07;;
48629;SDS011;34426;52.180;4.462;2023-04-16T05:09:36;25.65;;;3.90;;
48629;SDS011;34426;52.180;4.462;2023-04-16T05:12:04;19.27;;;3.28;;
48629;SDS011;34426;52.180;4.462;2023-04-16T05:14:31;15.48;;;2.85;;
48629;SDS011;34426;52.180;4.462;2023-04-16T05:16:59;19.45;;;3.45;;
48629;SDS011;34426;52.180;4.462;2023-04-16T05:19:26;16.23;;;3.33;;
48629;SDS011;34426;52.180;4.462;2023-04-16T05:21:53;25.63;;;4.45;;
48629;SDS011;34426;52.180;4.462;2023-04-16T05:24:22;14.50;;;3.97;;
48629;SDS011;34426;52.180;4.462;2023-04-16T05:26:50;10.32;;;3.17;;
48629;SDS011;34426;52.180;4.462;2023-04-16T05:29:17;20.52;;;4.45;;
48629;SDS011;34426;52.180;4.462;2023-04-16T05:31:44;17.98;;;5.20;;
48629;SDS011;34426;52.180;4.462;2023-04-16T05:34:11;15.88;;;3.53;;
48629;SDS011;34426;52.180;4.462;2023-04-16T05:36:39;12.90;;;3.60;;
48629;SDS011;34426;52.180;4.462;2023-04-16T05:39:06;18.60;;;4.95;;
48629;SDS011;34426;52.180;4.462;2023-04-16T05:41:36;25.10;;;4.10;;
48629;SDS011;34426;52.180;4.462;2023-04-16T05:44:03;20.50;;;4.75;;
48629;SDS011;34426;52.180;4.462;2023-04-16T05:46:30;17.15;;;4.28;;
48629;SDS011;34426;52.180;4.462;2023-04-16T05:48:57;12.95;;;3.83;;
48629;SDS011;34426;52.180;4.462;2023-04-16T05:51:25;11.52;;;4.05;;
48629;SDS011;34426;52.180;4.462;2023-04-16T05:53:52;22.30;;;4.28;;
48629;SDS011;34426;52.180;4.462;2023-04-16T05:56:20;17.23;;;3.90;;
48629;SDS011;34426;52.180;4.462;2023-04-16T05:58:49;19.45;;;4.30;;
48629;SDS011;34426;52.180;4.462;2023-04-16T06:01:16;20.40;;;5.25;;
48629;SDS011;34426;52.180;4.462;2023-04-16T06:03:44;20.80;;;5.00;;
48629;SDS011;34426;52.180;4.462;2023-04-16T06:06:11;15.70;;;4.43;;
48629;SDS011;34426;52.180;4.462;2023-04-16T06:08:38;19.63;;;5.18;;
48629;SDS011;34426;52.180;4.462;2023-04-16T06:11:05;18.58;;;5.55;;
48629;SDS011;34426;52.180;4.462;2023-04-16T06:13:33;13.55;;;4.82;;
48629;SDS011;34426;52.180;4.462;2023-04-16T06:16:02;18.67;;;5.43;;
48629;SDS011;34426;52.180;4.462;2023-04-16T06:18:30;23.40;;;5.95;;
48629;SDS011;34426;52.180;4.462;2023-04-16T06:20:57;21.63;;;6.53;;
48629;SDS011;34426;52.180;4.462;2023-04-16T06:23:24;20.55;;;6.38;;
48629;SDS011;34426;52.180;4.462;2023-04-16T06:25:52;27.67;;;5.97;;
48629;SDS011;34426;52.180;4.462;2023-04-16T06:28:19;26.20;;;5.80;;
48629;SDS011;34426;52.180;4.462;2023-04-16T06:30:47;19.13;;;5.35;;
48629;SDS011;34426;52.180;4.462;2023-04-16T06:33:16;32.10;;;6.60;;
48629;SDS011;34426;52.180;4.462;2023-04-16T06:35:43;20.58;;;5.50;;
48629;SDS011;34426;52.180;4.462;2023-04-16T06:38:10;25.65;;;7.10;;
48629;SDS011;34426;52.180;4.462;2023-04-16T06:40:37;18.15;;;5.18;;
48629;SDS011;34426;52.180;4.462;2023-04-16T06:43:05;20.27;;;4.90;;
48629;SDS011;34426;52.180;4.462;2023-04-16T06:45:32;21.05;;;4.93;;
48629;SDS011;34426;52.180;4.462;2023-04-16T06:47:59;25.00;;;5.07;;
48629;SDS011;34426;52.180;4.462;2023-04-16T06:50:28;23.75;;;5.13;;
48629;SDS011;34426;52.180;4.462;2023-04-16T06:52:56;14.95;;;5.40;;
48629;SDS011;34426;52.180;4.462;2023-04-16T06:55:23;20.30;;;5.70;;
48629;SDS011;34426;52.180;4.462;2023-04-16T06:57:50;16.02;;;5.18;;
48629;SDS011;34426;52.180;4.462;2023-04-16T07:00:18;15.68;;;4.72;;
48629;SDS011;34426;52.180;4.462;2023-04-16T07:02:45;21.58;;;4.65;;
48629;SDS011;34426;52.180;4.462;2023-04-16T07:05:12;18.10;;;4.50;;
48629;SDS011;34426;52.180;4.462;2023-04-16T07:07:41;17.00;;;4.95;;
48629;SDS011;34426;52.180;4.462;2023-04-16T07:10:09;16.67;;;4.70;;
48629;SDS011;34426;52.180;4.462;2023-04-16T07:12:36;12.05;;;4.53;;
48629;SDS011;34426;52.180;4.462;2023-04-16T07:15:04;22.55;;;5.35;;
48629;SDS011;34426;52.180;4.462;2023-04-16T07:17:33;19.27;;;6.30;;
48629;SDS011;34426;52.180;4.462;2023-04-16T07:20:00;17.58;;;5.00;;
48629;SDS011;34426;52.180;4.462;2023-04-16T07:22:27;14.07;;;4.57;;
48629;SDS011;34426;52.180;4.462;2023-04-16T07:24:56;18.85;;;5.05;;
48629;SDS011;34426;52.180;4.462;2023-04-16T07:27:24;17.98;;;4.25;;
48629;SDS011;34426;52.180;4.462;2023-04-16T07:29:51;13.20;;;4.05;;
48629;SDS011;34426;52.180;4.462;2023-04-16T07:32:18;28.38;;;4.72;;
48629;SDS011;34426;52.180;4.462;2023-04-16T07:34:46;22.92;;;5.00;;
48629;SDS011;34426;52.180;4.462;2023-04-16T07:37:14;19.10;;;4.47;;
48629;SDS011;34426;52.180;4.462;2023-04-16T07:39:41;20.27;;;5.28;;
48629;SDS011;34426;52.180;4.462;2023-04-16T07:42:11;21.08;;;5.10;;
48629;SDS011;34426;52.180;4.462;2023-04-16T07:44:41;20.35;;;5.13;;
48629;SDS011;34426;52.180;4.462;2023-04-16T07:47:08;14.98;;;4.63;;
48629;SDS011;34426;52.180;4.462;2023-04-16T07:49:35;24.70;;;4.70;;
48629;SDS011;34426;52.180;4.462;2023-04-16T07:52:03;16.45;;;4.63;;
48629;SDS011;34426;52.180;4.462;2023-04-16T07:54:30;14.05;;;4.65;;
48629;SDS011;34426;52.180;4.462;2023-04-16T07:56:58;18.20;;;4.57;;
48629;SDS011;34426;52.180;4.462;2023-04-16T07:59:27;18.70;;;4.97;;
48629;SDS011;34426;52.180;4.462;2023-04-16T08:01:54;12.75;;;4.63;;
48629;SDS011;34426;52.180;4.462;2023-04-16T08:04:22;17.98;;;4.28;;
48629;SDS011;34426;52.180;4.462;2023-04-16T08:06:49;18.45;;;4.45;;
48629;SDS011;34426;52.180;4.462;2023-04-16T08:09:17;20.23;;;5.05;;
48629;SDS011;34426;52.180;4.462;2023-04-16T08:11:45;17.17;;;4.78;;
48629;SDS011;34426;52.180;4.462;2023-04-16T08:14:12;18.33;;;4.80;;
48629;SDS011;34426;52.180;4.462;2023-04-16T08:16:41;19.67;;;4.95;;
48629;SDS011;34426;52.180;4.462;2023-04-16T08:19:09;18.45;;;4.90;;
48629;SDS011;34426;52.180;4.462;2023-04-16T08:21:36;24.60;;;5.25;;
48629;SDS011;34426;52.180;4.462;2023-04-16T08:24:07;25.70;;;5.65;;
48629;SDS011;34426;52.180;4.462;2023-04-16T08:26:35;27.95;;;4.70;;
48629;SDS011;34426;52.180;4.462;2023-04-16T08:29:11;28.38;;;4.68;;
48629;SDS011;34426;52.180;4.462;2023-04-16T08:31:39;22.77;;;5.00;;
48629;SDS011;34426;52.180;4.462;2023-04-16T08:34:23;20.38;;;4.57;;
48629;SDS011;34426;52.180;4.462;2023-04-16T08:36:51;20.67;;;4.50;;
48629;SDS011;34426;52.180;4.462;2023-04-16T08:39:18;25.20;;;4.63;;
48629;SDS011;34426;52.180;4.462;2023-04-16T08:41:46;17.65;;;4.75;;
48629;SDS011;34426;52.180;4.462;2023-04-16T08:44:17;22.42;;;4.65;;
48629;SDS011;34426;52.180;4.462;2023-04-16T08:46:48;13.93;;;3.78;;
48629;SDS011;34426;52.180;4.462;2023-04-16T08:49:18;18.98;;;4.70;;
48629;SDS011;34426;52.180;4.462;2023-04-16T08:51:48;16.50;;;4.18;;
48629;SDS011;34426;52.180;4.462;2023-04-16T08:54:18;26.23;;;5.47;;
48629;SDS011;34426;52.180;4.462;2023-04-16T08:56:55;22.83;;;5.00;;
48629;SDS011;34426;52.180;4.462;2023-04-16T08:59:24;28.70;;;6.05;;
48629;SDS011;34426;52.180;4.462;2023-04-16T09:01:54;24.05;;;6.10;;
48629;SDS011;34426;52.180;4.462;2023-04-16T09:04:24;30.38;;;7.38;;
48629;SDS011;34426;52.180;4.462;2023-04-16T09:06:52;21.15;;;5.00;;
48629;SDS011;34426;52.180;4.462;2023-04-16T09:09:20;22.92;;;5.70;;
48629;SDS011;34426;52.180;4.462;2023-04-16T09:11:49;23.98;;;5.72;;
48629;SDS011;34426;52.180;4.462;2023-04-16T09:14:17;18.73;;;6.03;;
48629;SDS011;34426;52.180;4.462;2023-04-16T09:16:44;28.63;;;5.10;;
48629;SDS011;34426;52.180;4.462;2023-04-16T09:19:14;28.42;;;6.05;;
48629;SDS011;34426;52.180;4.462;2023-04-16T09:21:42;28.58;;;5.60;;
48629;SDS011;34426;52.180;4.462;2023-04-16T09:24:12;27.50;;;5.30;;
48629;SDS011;34426;52.180;4.462;2023-04-16T09:26:40;26.00;;;5.15;;
48629;SDS011;34426;52.180;4.462;2023-04-16T09:29:07;23.45;;;5.47;;
48629;SDS011;34426;52.180;4.462;2023-04-16T09:31:35;23.52;;;6.20;;
48629;SDS011;34426;52.180;4.462;2023-04-16T09:34:03;25.05;;;5.90;;
48629;SDS011;34426;52.180;4.462;2023-04-16T09:36:36;24.85;;;6.00;;
48629;SDS011;34426;52.180;4.462;2023-04-16T09:39:03;29.15;;;7.22;;
48629;SDS011;34426;52.180;4.462;2023-04-16T09:41:31;22.73;;;6.13;;
48629;SDS011;34426;52.180;4.462;2023-04-16T09:43:59;22.65;;;7.15;;
48629;SDS011;34426;52.180;4.462;2023-04-16T09:46:29;25.25;;;7.57;;
48629;SDS011;34426;52.180;4.462;2023-04-16T09:49:01;21.35;;;6.63;;
48629;SDS011;34426;52.180;4.462;2023-04-16T09:51:37;20.10;;;5.85;;
48629;SDS011;34426;52.180;4.462;2023-04-16T09:54:06;17.98;;;6.75;;
48629;SDS011;34426;52.180;4.462;2023-04-16T09:56:38;31.05;;;6.43;;
48629;SDS011;34426;52.180;4.462;2023-04-16T09:59:11;22.95;;;6.13;;
48629;SDS011;34426;52.180;4.462;2023-04-16T10:01:42;25.40;;;6.05;;
48629;SDS011;34426;52.180;4.462;2023-04-16T10:04:09;23.85;;;6.22;;
48629;SDS011;34426;52.180;4.462;2023-04-16T10:06:39;23.88;;;6.60;;
48629;SDS011;34426;52.180;4.462;2023-04-16T10:09:06;29.80;;;6.72;;
48629;SDS011;34426;52.180;4.462;2023-04-16T10:11:34;26.15;;;6.90;;
48629;SDS011;34426;52.180;4.462;2023-04-16T10:14:01;19.45;;;6.35;;
48629;SDS011;34426;52.180;4.462;2023-04-16T10:16:29;31.73;;;5.65;;
48629;SDS011;34426;52.180;4.462;2023-04-16T10:18:57;33.70;;;6.20;;
48629;SDS011;34426;52.180;4.462;2023-04-16T10:21:25;22.67;;;5.55;;
48629;SDS011;34426;52.180;4.462;2023-04-16T10:23:54;17.40;;;4.78;;
48629;SDS011;34426;52.180;4.462;2023-04-16T10:26:21;28.77;;;5.53;;
48629;SDS011;34426;52.180;4.462;2023-04-16T10:28:49;16.60;;;5.07;;
48629;SDS011;34426;52.180;4.462;2023-04-16T10:31:18;19.05;;;6.20;;
48629;SDS011;34426;52.180;4.462;2023-04-16T10:33:46;24.27;;;5.10;;
48629;SDS011;34426;52.180;4.462;2023-04-16T10:36:14;18.25;;;5.45;;
48629;SDS011;34426;52.180;4.462;2023-04-16T10:38:48;15.63;;;5.20;;
48629;SDS011;34426;52.180;4.462;2023-04-16T10:41:18;17.42;;;4.88;;
48629;SDS011;34426;52.180;4.462;2023-04-16T10:43:46;21.73;;;5.85;;
48629;SDS011;34426;52.180;4.462;2023-04-16T10:46:20;17.98;;;4.80;;
48629;SDS011;34426;52.180;4.462;2023-04-16T10:48:49;30.77;;;6.15;;
48629;SDS011;34426;52.180;4.462;2023-04-16T10:51:25;28.58;;;6.57;;
48629;SDS011;34426;52.180;4.462;2023-04-16T10:54:02;19.15;;;5.22;;
48629;SDS011;34426;52.180;4.462;2023-04-16T10:56:45;17.80;;;5.15;;
48629;SDS011;34426;52.180;4.462;2023-04-16T10:59:16;20.98;;;5.43;;
48629;SDS011;34426;52.180;4.462;2023-04-16T11:01:45;29.35;;;5.65;;
48629;SDS011;34426;52.180;4.462;2023-04-16T11:04:25;26.75;;;6.25;;
48629;SDS011;34426;52.180;4.462;2023-04-16T11:07:04;18.35;;;5.57;;
48629;SDS011;34426;52.180;4.462;2023-04-16T11:09:45;15.05;;;5.32;;
48629;SDS011;34426;52.180;4.462;2023-04-16T11:12:18;13.90;;;5.38;;
48629;SDS011;34426;52.180;4.462;2023-04-16T11:14:47;22.33;;;5.90;;
48629;SDS011;34426;52.180;4.462;2023-04-16T11:17:16;20.48;;;6.40;;
48629;SDS011;34426;52.180;4.462;2023-04-16T11:19:45;18.60;;;6.65;;
48629;SDS011;34426;52.180;4.462;2023-04-16T11:22:13;16.63;;;6.90;;
48629;SDS011;34426;52.180;4.462;2023-04-16T11:24:41;17.50;;;6.72;;
48629;SDS011;34426;52.180;4.462;2023-04-16T11:27:09;23.55;;;7.22;;
48629;SDS011;34426;52.180;4.462;2023-04-16T11:29:40;22.65;;;7.93;;
48629;SDS011;34426;52.180;4.462;2023-04-16T11:32:07;23.48;;;7.25;;
48629;SDS011;34426;52.180;4.462;2023-04-16T11:34:42;21.10;;;6.80;;
48629;SDS011;34426;52.180;4.462;2023-04-16T11:37:09;26.25;;;7.47;;
48629;SDS011;34426;52.180;4.462;2023-04-16T11:39:47;25.85;;;7.30;;
48629;SDS011;34426;52.180;4.462;2023-04-16T11:42:20;17.50;;;5.80;;
48629;SDS011;34426;52.180;4.462;2023-04-16T11:44:52;21.00;;;7.43;;
48629;SDS011;34426;52.180;4.462;2023-04-16T11:49:47;21.92;;;7.90;;
48629;SDS011;34426;52.180;4.462;2023-04-16T11:52:23;25.88;;;7.85;;
48629;SDS011;34426;52.180;4.462;2023-04-16T11:54:51;31.33;;;9.65;;
48629;SDS011;34426;52.180;4.462;2023-04-16T11:57:28;26.45;;;9.25;;
48629;SDS011;34426;52.180;4.462;2023-04-16T11:59:58;21.98;;;8.48;;
48629;SDS011;34426;52.180;4.462;2023-04-16T12:02:36;30.02;;;9.10;;
48629;SDS011;34426;52.180;4.462;2023-04-16T12:05:04;27.60;;;9.60;;
48629;SDS011;34426;52.180;4.462;2023-04-16T12:07:42;27.95;;;9.57;;
48629;SDS011;34426;52.180;4.462;2023-04-16T12:10:09;24.05;;;8.57;;
48629;SDS011;34426;52.180;4.462;2023-04-16T12:12:37;27.73;;;10.73;;
48629;SDS011;34426;52.180;4.462;2023-04-16T12:15:06;29.30;;;9.73;;
48629;SDS011;34426;52.180;4.462;2023-04-16T12:17:34;35.35;;;10.88;;
48629;SDS011;34426;52.180;4.462;2023-04-16T12:20:03;30.38;;;9.88;;
48629;SDS011;34426;52.180;4.462;2023-04-16T12:22:35;32.17;;;10.95;;
48629;SDS011;34426;52.180;4.462;2023-04-16T12:25:04;32.88;;;11.48;;
48629;SDS011;34426;52.180;4.462;2023-04-16T12:27:42;29.80;;;11.27;;
48629;SDS011;34426;52.180;4.462;2023-04-16T12:30:13;32.30;;;10.15;;
48629;SDS011;34426;52.180;4.462;2023-04-16T12:32:42;25.13;;;9.85;;
48629;SDS011;34426;52.180;4.462;2023-04-16T12:35:12;30.42;;;9.90;;
48629;SDS011;34426;52.180;4.462;2023-04-16T12:37:53;33.40;;;10.88;;
48629;SDS011;34426;52.180;4.462;2023-04-16T12:40:20;29.52;;;10.38;;
48629;SDS011;34426;52.180;4.462;2023-04-16T12:42:47;27.55;;;11.05;;
48629;SDS011;34426;52.180;4.462;2023-04-16T12:45:16;35.67;;;11.05;;
48629;SDS011;34426;52.180;4.462;2023-04-16T12:47:44;29.27;;;10.13;;
48629;SDS011;34426;52.180;4.462;2023-04-16T12:50:11;26.92;;;10.18;;
48629;SDS011;34426;52.180;4.462;2023-04-16T12:52:39;30.98;;;10.38;;
48629;SDS011;34426;52.180;4.462;2023-04-16T12:55:07;24.20;;;10.93;;
48629;SDS011;34426;52.180;4.462;2023-04-16T12:57:35;28.83;;;9.68;;
48629;SDS011;34426;52.180;4.462;2023-04-16T13:00:02;36.28;;;10.43;;
48629;SDS011;34426;52.180;4.462;2023-04-16T13:02:32;33.05;;;9.00;;
48629;SDS011;34426;52.180;4.462;2023-04-16T13:05:00;31.77;;;9.68;;
48629;SDS011;34426;52.180;4.462;2023-04-16T13:07:27;31.95;;;9.43;;
48629;SDS011;34426;52.180;4.462;2023-04-16T13:09:55;32.80;;;8.13;;
48629;SDS011;34426;52.180;4.462;2023-04-16T13:12:22;27.80;;;9.70;;
48629;SDS011;34426;52.180;4.462;2023-04-16T13:14:50;30.15;;;8.68;;
48629;SDS011;34426;52.180;4.462;2023-04-16T13:17:17;29.38;;;8.82;;
48629;SDS011;34426;52.180;4.462;2023-04-16T13:19:46;26.02;;;8.95;;
48629;SDS011;34426;52.180;4.462;2023-04-16T13:22:14;29.95;;;9.32;;
48629;SDS011;34426;52.180;4.462;2023-04-16T13:24:41;25.75;;;8.02;;
48629;SDS011;34426;52.180;4.462;2023-04-16T13:27:09;33.28;;;8.95;;
48629;SDS011;34426;52.180;4.462;2023-04-16T13:29:36;21.27;;;8.75;;
48629;SDS011;34426;52.180;4.462;2023-04-16T13:32:04;28.48;;;9.45;;
48629;SDS011;34426;52.180;4.462;2023-04-16T13:34:31;26.80;;;10.25;;
48629;SDS011;34426;52.180;4.462;2023-04-16T13:37:01;26.20;;;10.23;;
48629;SDS011;34426;52.180;4.462;2023-04-16T13:39:28;35.17;;;11.57;;
48629;SDS011;34426;52.180;4.462;2023-04-16T13:41:56;25.13;;;11.07;;
48629;SDS011;34426;52.180;4.462;2023-04-16T13:44:23;27.98;;;10.23;;
48629;SDS011;34426;52.180;4.462;2023-04-16T13:46:50;27.50;;;9.35;;
48629;SDS011;34426;52.180;4.462;2023-04-16T13:49:18;32.30;;;9.35;;
48629;SDS011;34426;52.180;4.462;2023-04-16T13:51:45;38.20;;;9.50;;
48629;SDS011;34426;52.180;4.462;2023-04-16T13:54:15;34.58;;;8.57;;
48629;SDS011;34426;52.180;4.462;2023-04-16T13:56:42;33.72;;;8.50;;
48629;SDS011;34426;52.180;4.462;2023-04-16T13:59:10;32.80;;;8.45;;
48629;SDS011;34426;52.180;4.462;2023-04-16T14:01:37;31.90;;;8.73;;
48629;SDS011;34426;52.180;4.462;2023-04-16T14:04:05;23.17;;;8.40;;
48629;SDS011;34426;52.180;4.462;2023-04-16T14:06:33;24.52;;;8.68;;
48629;SDS011;34426;52.180;4.462;2023-04-16T14:09:00;33.30;;;9.40;;
48629;SDS011;34426;52.180;4.462;2023-04-16T14:11:29;26.38;;;8.43;;
48629;SDS011;34426;52.180;4.462;2023-04-16T14:13:57;29.10;;;8.82;;
48629;SDS011;34426;52.180;4.462;2023-04-16T14:16:24;27.63;;;9.00;;
48629;SDS011;34426;52.180;4.462;2023-04-16T14:18:52;26.52;;;8.57;;
48629;SDS011;34426;52.180;4.462;2023-04-16T14:21:19;27.88;;;8.55;;
48629;SDS011;34426;52.180;4.462;2023-04-16T14:23:46;30.67;;;9.30;;
48629;SDS011;34426;52.180;4.462;2023-04-16T14:26:14;29.42;;;10.32;;
48629;SDS011;34426;52.180;4.462;2023-04-16T14:28:44;34.63;;;10.60;;
48629;SDS011;34426;52.180;4.462;2023-04-16T14:31:11;27.92;;;10.38;;
48629;SDS011;34426;52.180;4.462;2023-04-16T14:33:38;27.55;;;9.80;;
48629;SDS011;34426;52.180;4.462;2023-04-16T14:36:06;32.25;;;9.93;;
48629;SDS011;34426;52.180;4.462;2023-04-16T14:38:36;21.95;;;8.43;;
48629;SDS011;34426;52.180;4.462;2023-04-16T14:41:04;37.35;;;10.18;;
48629;SDS011;34426;52.180;4.462;2023-04-16T14:43:31;30.70;;;9.95;;
48629;SDS011;34426;52.180;4.462;2023-04-16T14:46:00;31.88;;;10.20;;